CZVL

Edmonton / Villeneuve Airport

Edmonton, Alberta, Canada
METAR CZVL 170900Z AUTO 21005KT 9SM CLR M16/M17 A3033 RMK SLP332
Observed Flight Rules
Nov-17 @ 09:00 UTC (22 minutes ago) Visual Flight Rules
Wind Visibility Clouds
210° at 5 knots 9 miles
  • Clear skies
Temperatures Readings
Current -16°C / 3°F
Dewpoint -17°C / 1°F
Humidity 92%
Altimeter 30.33" Hg
Pressure 1033.2 hPa
Elevation 686
METAR CZVL 170900Z AUTO 21005KT 9SM CLR M16/M17 A3033 RMK SLP332
Observed Flight Rules
Nov-17 @ 09:00 UTC
(22 minutes ago)
VFR
Wind Visibility
210° at 5 knots 9 miles
Clouds
  • Clear skies
Temperature Dewpoint
-16°C / 3°F -17°C / 1°F
Humidity Altimeter Pressure
92% 30.33" Hg 1033.2 hPa